createdAt,value
2023-04-16T00:00:29.548Z,6.65
2023-04-16T00:02:56.673Z,7.22
2023-04-16T00:05:23.863Z,6.90
2023-04-16T00:07:51.714Z,6.55
2023-04-16T00:10:18.907Z,7.30
2023-04-16T00:12:45.965Z,6.10
2023-04-16T00:15:12.897Z,5.57
2023-04-16T00:18:30.967Z,6.03
2023-04-16T00:20:57.947Z,6.93
2023-04-16T00:23:25.434Z,5.78
2023-04-16T00:25:53.838Z,5.65
2023-04-16T00:28:21.167Z,7.22
2023-04-16T00:30:48.200Z,5.80
2023-04-16T00:33:15.867Z,5.70
2023-04-16T00:35:45.100Z,6.75
2023-04-16T00:38:12.141Z,5.85
2023-04-16T00:40:39.197Z,6.28
2023-04-16T00:43:06.260Z,6.40
2023-04-16T00:45:33.292Z,5.60
2023-04-16T00:48:01.334Z,5.57
2023-04-16T00:50:28.486Z,5.63
2023-04-16T00:52:56.703Z,5.72
2023-04-16T00:55:23.850Z,5.28
2023-04-16T00:57:50.841Z,5.43
2023-04-16T01:00:17.885Z,5.10
2023-04-16T01:02:45.085Z,4.95
2023-04-16T01:05:12.255Z,4.60
2023-04-16T01:07:39.253Z,4.43
2023-04-16T01:10:06.797Z,4.40
2023-04-16T01:12:33.887Z,4.07
2023-04-16T01:15:01.144Z,4.50
2023-04-16T01:17:28.196Z,3.40
2023-04-16T01:19:59.753Z,4.13
2023-04-16T01:22:28.503Z,4.20
2023-04-16T01:24:55.525Z,5.05
2023-04-16T01:27:23.723Z,4.30
2023-04-16T01:29:50.966Z,4.28
2023-04-16T01:32:23.121Z,3.83
2023-04-16T01:34:50.183Z,4.35
2023-04-16T01:37:17.746Z,4.55
2023-04-16T01:39:46.339Z,4.25
2023-04-16T01:42:13.284Z,3.85
2023-04-16T01:44:40.262Z,5.22
2023-04-16T01:47:08.219Z,4.30
2023-04-16T01:53:23.692Z,4.38
2023-04-16T01:55:50.658Z,4.18
2023-04-16T01:58:17.815Z,5.07
2023-04-16T02:00:44.903Z,4.15
2023-04-16T02:03:12.030Z,3.97
2023-04-16T02:05:44.254Z,3.58
2023-04-16T02:08:11.325Z,4.07
2023-04-16T02:10:38.444Z,4.35
2023-04-16T02:13:05.787Z,4.65
2023-04-16T02:15:32.844Z,4.05
2023-04-16T02:18:00.526Z,4.75
2023-04-16T02:20:27.615Z,4.53
2023-04-16T02:22:58.963Z,4.82
2023-04-16T02:25:26.657Z,4.95
2023-04-16T02:27:55.748Z,4.00
2023-04-16T02:30:37.493Z,4.15
2023-04-16T02:33:05.842Z,4.72
2023-04-16T02:35:37.624Z,4.57
2023-04-16T02:38:06.235Z,4.35
2023-04-16T02:40:35.486Z,4.97
2023-04-16T02:43:02.521Z,4.95
2023-04-16T02:45:31.632Z,4.30
2023-04-16T02:47:59.137Z,6.25
2023-04-16T02:50:26.197Z,5.68
2023-04-16T02:52:53.287Z,5.45
2023-04-16T02:55:20.411Z,5.57
2023-04-16T02:57:47.410Z,5.32
2023-04-16T03:00:14.674Z,5.45
2023-04-16T03:02:42.642Z,6.90
2023-04-16T03:05:10.047Z,6.43
2023-04-16T03:07:39.227Z,6.15
2023-04-16T03:10:07.497Z,5.53
2023-04-16T03:12:34.592Z,6.38
2023-04-16T03:15:01.658Z,6.68
2023-04-16T03:17:28.653Z,6.80
2023-04-16T03:19:55.914Z,9.05
2023-04-16T03:22:23.082Z,6.45
2023-04-16T03:24:50.145Z,6.65
2023-04-16T03:27:17.411Z,5.95
2023-04-16T03:29:46.033Z,7.20
2023-04-16T03:32:13.235Z,7.90
2023-04-16T03:34:40.907Z,7.10
2023-04-16T03:37:10.070Z,7.38
2023-04-16T03:39:37.330Z,6.43
2023-04-16T03:42:04.307Z,10.90
2023-04-16T03:44:31.403Z,7.25
2023-04-16T03:46:58.417Z,6.57
2023-04-16T03:49:25.496Z,8.75
2023-04-16T03:51:52.706Z,8.02
2023-04-16T03:54:22.028Z,8.60
2023-04-16T03:56:54.642Z,7.53
2023-04-16T03:59:21.642Z,7.40
2023-04-16T04:01:48.693Z,8.63
2023-04-16T04:04:15.956Z,9.90
2023-04-16T04:06:45.046Z,8.27
2023-04-16T04:09:12.218Z,10.13
2023-04-16T04:11:39.254Z,10.40
2023-04-16T04:14:06.350Z,7.30
2023-04-16T04:16:34.777Z,8.95
2023-04-16T04:19:01.920Z,8.73
2023-04-16T04:21:29.575Z,9.07
2023-04-16T04:23:56.742Z,9.20
2023-04-16T04:26:24.009Z,12.05
2023-04-16T04:28:51.133Z,9.50
2023-04-16T04:31:18.930Z,10.73
2023-04-16T04:33:46.060Z,10.45
2023-04-16T04:36:12.997Z,10.00
2023-04-16T04:38:40.035Z,10.35
2023-04-16T04:41:07.095Z,9.15
2023-04-16T04:43:36.868Z,11.02
2023-04-16T04:46:28.537Z,10.73
2023-04-16T04:48:55.885Z,11.15
2023-04-16T04:51:22.958Z,9.00
2023-04-16T04:53:49.975Z,9.10
2023-04-16T04:56:16.926Z,9.20
2023-04-16T04:58:44.314Z,12.10
2023-04-16T05:01:11.329Z,9.68
2023-04-16T05:03:38.527Z,9.43
2023-04-16T05:06:06.921Z,11.38
2023-04-16T05:08:33.975Z,12.70
2023-04-16T05:11:00.970Z,10.75
2023-04-16T05:13:27.924Z,10.60
2023-04-16T05:15:54.895Z,10.27
2023-04-16T05:18:21.890Z,11.02
2023-04-16T05:20:48.951Z,10.85
2023-04-16T05:23:15.926Z,9.80
2023-04-16T05:25:42.868Z,10.77
2023-04-16T05:28:11.136Z,10.02
2023-04-16T05:30:38.218Z,9.80
2023-04-16T05:33:05.238Z,9.05
2023-04-16T05:35:32.230Z,9.65
2023-04-16T05:37:59.211Z,9.10
2023-04-16T05:40:26.386Z,11.07
2023-04-16T05:42:53.383Z,9.23
2023-04-16T05:45:20.619Z,9.45
2023-04-16T05:48:14.129Z,8.93
2023-04-16T05:50:41.101Z,9.20
2023-04-16T05:53:09.482Z,11.20
2023-04-16T05:55:39.314Z,8.02
2023-04-16T06:00:33.496Z,10.73
2023-04-16T06:03:01.130Z,11.63
2023-04-16T06:05:29.051Z,11.18
2023-04-16T06:07:56.745Z,11.80
2023-04-16T06:10:23.837Z,11.95
2023-04-16T06:12:50.765Z,12.25
2023-04-16T06:15:17.880Z,13.13
2023-04-16T06:17:44.888Z,12.23
2023-04-16T06:20:12.648Z,13.82
2023-04-16T06:22:39.648Z,13.48
2023-04-16T06:25:07.080Z,12.20
2023-04-16T06:27:34.098Z,16.20
2023-04-16T06:30:01.089Z,15.63
2023-04-16T06:32:28.137Z,16.05
2023-04-16T06:34:56.401Z,16.23
2023-04-16T06:37:23.345Z,18.10
2023-04-16T06:39:50.337Z,17.20
2023-04-16T06:42:17.910Z,17.42
2023-04-16T06:44:44.984Z,17.92
2023-04-16T06:47:12.439Z,15.15
2023-04-16T06:49:40.436Z,21.23
2023-04-16T06:52:07.429Z,18.45
2023-04-16T06:54:34.506Z,18.50
2023-04-16T06:57:01.463Z,20.40
2023-04-16T06:59:28.446Z,20.20
2023-04-16T07:01:55.554Z,17.88
2023-04-16T07:04:23.324Z,18.38
2023-04-16T07:06:50.305Z,17.38
2023-04-16T07:09:18.117Z,19.92
2023-04-16T07:11:45.159Z,20.50
2023-04-16T07:14:12.322Z,19.63
2023-04-16T07:16:39.325Z,19.90
2023-04-16T07:19:07.576Z,21.38
2023-04-16T07:21:34.710Z,20.33
2023-04-16T07:24:01.783Z,19.80
2023-04-16T07:26:28.741Z,22.15
2023-04-16T07:28:55.737Z,20.85
2023-04-16T07:31:22.778Z,22.92
2023-04-16T07:33:49.780Z,22.15
2023-04-16T07:36:16.716Z,19.77
2023-04-16T07:38:43.768Z,19.05
2023-04-16T07:41:10.820Z,17.15
2023-04-16T07:43:37.818Z,19.75
2023-04-16T07:46:04.788Z,20.52
2023-04-16T07:48:31.815Z,20.50
2023-04-16T07:50:58.930Z,19.60
2023-04-16T07:53:26.103Z,18.90
2023-04-16T07:55:53.037Z,18.33
2023-04-16T07:58:20.006Z,19.50
2023-04-16T08:00:48.119Z,19.73
2023-04-16T08:03:16.617Z,20.27
2023-04-16T08:05:43.709Z,18.77
2023-04-16T08:08:10.868Z,19.60
2023-04-16T08:10:38.568Z,19.40
2023-04-16T08:13:05.720Z,16.90
2023-04-16T08:15:32.811Z,17.63
2023-04-16T08:17:59.873Z,20.20
2023-04-16T08:20:27.056Z,18.13
2023-04-16T08:22:54.963Z,19.42
2023-04-16T08:25:23.811Z,16.33
2023-04-16T08:27:51.211Z,19.80
2023-04-16T08:30:18.248Z,18.30
2023-04-16T08:32:47.970Z,17.15
2023-04-16T08:35:16.527Z,16.10
2023-04-16T08:37:43.434Z,14.52
2023-04-16T08:40:10.830Z,13.60
2023-04-16T08:42:53.135Z,16.15
2023-04-16T08:45:20.285Z,15.80
2023-04-16T08:47:52.145Z,15.65
2023-04-16T08:50:24.383Z,14.98
2023-04-16T08:52:59.692Z,14.68
2023-04-16T08:55:38.277Z,12.88
2023-04-16T08:58:22.881Z,16.88
2023-04-16T09:00:49.938Z,14.98
2023-04-16T09:03:17.454Z,15.23
2023-04-16T09:05:44.798Z,15.05
2023-04-16T09:08:12.596Z,15.65
2023-04-16T09:10:39.691Z,16.70
2023-04-16T09:13:08.427Z,14.95
2023-04-16T09:15:36.352Z,11.77
2023-04-16T09:18:03.510Z,15.23
2023-04-16T09:20:30.494Z,14.27
2023-04-16T09:22:57.539Z,12.95
2023-04-16T09:25:26.007Z,17.17
2023-04-16T09:27:52.973Z,16.05
2023-04-16T09:30:23.871Z,15.43
2023-04-16T09:32:52.483Z,15.20
2023-04-16T09:35:21.297Z,13.30
2023-04-16T09:37:58.068Z,12.80
2023-04-16T09:40:27.325Z,14.40
2023-04-16T09:42:58.215Z,12.48
2023-04-16T09:45:25.388Z,11.05
2023-04-16T09:47:52.407Z,11.07
2023-04-16T09:50:20.418Z,11.68
2023-04-16T09:52:51.519Z,10.88
2023-04-16T09:55:23.765Z,11.05
2023-04-16T09:57:59.137Z,11.82
2023-04-16T10:00:26.222Z,9.52
2023-04-16T10:03:04.868Z,10.15
2023-04-16T10:08:03.195Z,10.18
2023-04-16T10:10:30.673Z,10.30
2023-04-16T10:13:36.070Z,11.30
2023-04-16T10:16:04.027Z,9.07
2023-04-16T10:18:31.594Z,9.07
2023-04-16T10:20:59.010Z,8.95
2023-04-16T10:23:27.257Z,10.82
2023-04-16T10:25:57.470Z,9.32
2023-04-16T10:28:25.201Z,8.32
2023-04-16T10:30:53.740Z,10.45
2023-04-16T10:33:26.778Z,9.70
2023-04-16T10:36:15.038Z,8.07
2023-04-16T10:38:49.893Z,11.60
2023-04-16T10:41:17.193Z,10.75
2023-04-16T10:43:46.966Z,9.57
2023-04-16T10:48:50.655Z,10.93
2023-04-16T10:51:26.437Z,10.18
2023-04-16T10:53:55.768Z,11.70
2023-04-16T10:56:27.674Z,10.85
2023-04-16T10:58:56.341Z,11.20
2023-04-16T11:01:35.504Z,11.48
2023-04-16T11:04:25.493Z,10.70
2023-04-16T11:07:04.696Z,8.52
2023-04-16T11:13:25.134Z,9.65
2023-04-16T11:15:52.170Z,8.52
2023-04-16T11:18:20.124Z,9.13
2023-04-16T11:20:47.308Z,9.85
2023-04-16T11:23:14.445Z,8.50
2023-04-16T11:25:41.392Z,8.35
2023-04-16T11:28:08.367Z,9.57
2023-04-16T11:30:37.066Z,7.97
2023-04-16T11:33:11.522Z,6.90
2023-04-16T11:35:39.750Z,9.00
2023-04-16T11:38:07.537Z,9.60
2023-04-16T11:40:35.986Z,8.57
2023-04-16T11:43:15.530Z,7.35
2023-04-16T11:46:07.924Z,7.13
2023-04-16T11:48:53.191Z,7.25
2023-04-16T11:51:20.759Z,6.88
2023-04-16T11:54:40.629Z,5.93
2023-04-16T11:57:58.690Z,8.25
2023-04-16T12:00:53.538Z,10.02
2023-04-16T12:03:38.502Z,7.90
2023-04-16T12:06:09.825Z,7.35
2023-04-16T12:08:37.016Z,7.40
2023-04-16T12:11:04.148Z,8.90
2023-04-16T12:13:40.196Z,7.13
2023-04-16T12:16:19.508Z,6.35
2023-04-16T12:19:01.335Z,6.10
2023-04-16T12:21:49.046Z,6.82
2023-04-16T12:24:21.014Z,7.25
2023-04-16T12:26:51.789Z,7.00
2023-04-16T12:29:24.262Z,7.05
2023-04-16T12:31:53.012Z,6.07
2023-04-16T12:34:21.457Z,7.78
2023-04-16T12:37:11.059Z,7.22
2023-04-16T12:39:43.330Z,6.53
2023-04-16T12:42:11.517Z,6.95
2023-04-16T12:44:38.639Z,8.13
2023-04-16T12:47:06.789Z,7.10
2023-04-16T12:49:33.761Z,8.23
2023-04-16T12:52:00.935Z,6.88
2023-04-16T12:54:29.905Z,7.43
2023-04-16T12:56:57.472Z,8.13
2023-04-16T12:59:28.680Z,7.20
2023-04-16T13:01:55.685Z,6.40
2023-04-16T13:04:25.499Z,7.70
2023-04-16T13:06:52.860Z,6.95
2023-04-16T13:09:20.311Z,7.80
2023-04-16T13:11:47.354Z,8.20
2023-04-16T13:14:14.407Z,8.75
2023-04-16T13:16:41.371Z,8.80
2023-04-16T13:19:08.778Z,8.07
2023-04-16T13:21:36.062Z,9.68
2023-04-16T13:24:03.086Z,8.60
2023-04-16T13:26:30.026Z,8.98
2023-04-16T13:28:57.010Z,8.00
2023-04-16T13:31:24.508Z,8.13
2023-04-16T13:33:51.559Z,7.70
2023-04-16T13:36:18.585Z,9.02
2023-04-16T13:38:45.898Z,8.45
2023-04-16T13:41:12.865Z,8.10
2023-04-16T13:43:39.795Z,8.73
2023-04-16T13:46:06.970Z,8.13
2023-04-16T13:48:34.072Z,6.65
2023-04-16T13:51:01.153Z,6.80
2023-04-16T13:53:28.203Z,7.47
2023-04-16T13:55:55.201Z,6.78
2023-04-16T13:58:22.357Z,6.97
2023-04-16T14:00:49.977Z,7.47
2023-04-16T14:03:17.394Z,7.18
2023-04-16T14:05:49.921Z,6.90
2023-04-16T14:08:17.030Z,9.13
2023-04-16T14:10:43.993Z,7.05
2023-04-16T14:13:12.377Z,8.55
2023-04-16T14:15:39.629Z,6.55
2023-04-16T14:18:08.039Z,7.72
2023-04-16T14:20:40.114Z,7.00
2023-04-16T14:23:07.485Z,8.55
2023-04-16T14:25:34.490Z,7.28
2023-04-16T14:28:05.798Z,8.60
2023-04-16T14:30:36.071Z,8.13
2023-04-16T14:33:05.880Z,7.93
2023-04-16T14:35:34.180Z,7.53
2023-04-16T14:38:01.572Z,8.13
2023-04-16T14:40:28.663Z,7.78
2023-04-16T14:42:55.626Z,8.00
2023-04-16T14:45:31.190Z,8.02
2023-04-16T14:47:58.170Z,7.63
2023-04-16T14:50:25.366Z,8.18
2023-04-16T14:52:54.917Z,8.73
2023-04-16T14:55:49.673Z,9.23
2023-04-16T14:58:16.645Z,10.30
2023-04-16T15:00:43.918Z,10.05
2023-04-16T15:03:49.730Z,9.43
2023-04-16T15:06:17.436Z,10.02
2023-04-16T15:08:44.494Z,11.60
2023-04-16T15:11:11.592Z,10.07
2023-04-16T15:13:38.555Z,8.23
2023-04-16T15:16:05.998Z,11.48
2023-04-16T15:18:34.149Z,8.68
2023-04-16T15:21:01.145Z,7.53
2023-04-16T15:23:29.079Z,7.22
2023-04-16T15:25:56.037Z,6.07
2023-04-16T15:28:23.393Z,5.95
2023-04-16T15:30:52.308Z,6.57
2023-04-16T15:33:21.537Z,4.85
2023-04-16T15:35:48.514Z,6.03
2023-04-16T15:38:15.579Z,5.25
2023-04-16T15:40:42.572Z,4.40
2023-04-16T15:43:09.583Z,5.18
2023-04-16T15:45:36.643Z,5.13
2023-04-16T15:48:05.513Z,5.82
2023-04-16T15:50:33.224Z,4.80
2023-04-16T15:53:00.127Z,5.65
2023-04-16T15:55:31.142Z,6.88
2023-04-16T15:57:58.070Z,7.18
2023-04-16T16:00:25.101Z,8.73
2023-04-16T16:02:52.271Z,7.75
2023-04-16T16:05:19.544Z,8.38
2023-04-16T16:07:46.904Z,7.78
2023-04-16T16:10:14.900Z,7.95
2023-04-16T16:12:42.046Z,6.97
2023-04-16T16:15:11.382Z,6.65
2023-04-16T16:17:38.998Z,7.10
2023-04-16T16:20:10.529Z,7.72
2023-04-16T16:22:38.393Z,7.07
2023-04-16T16:25:06.095Z,7.93
2023-04-16T16:27:33.061Z,7.53
2023-04-16T16:30:01.155Z,7.55
2023-04-16T16:32:28.101Z,7.80
2023-04-16T16:34:55.024Z,6.53
2023-04-16T16:37:21.945Z,6.35
2023-04-16T16:39:48.843Z,6.78
2023-04-16T16:42:18.801Z,6.85
2023-04-16T16:44:47.493Z,7.53
2023-04-16T16:47:14.536Z,8.25
2023-04-16T16:49:41.486Z,7.97
2023-04-16T16:52:08.441Z,7.22
2023-04-16T16:54:35.449Z,7.13
2023-04-16T16:57:04.992Z,8.80
2023-04-16T16:59:31.948Z,9.43
2023-04-16T17:01:58.879Z,8.85
2023-04-16T17:04:25.820Z,10.25
2023-04-16T17:06:57.181Z,9.00
2023-04-16T17:09:24.134Z,9.63
2023-04-16T17:11:51.132Z,10.98
2023-04-16T17:14:18.178Z,10.55
2023-04-16T17:16:49.833Z,10.15
2023-04-16T17:19:17.966Z,9.45
2023-04-16T17:21:44.864Z,11.02
2023-04-16T17:24:11.984Z,9.70
2023-04-16T17:26:40.980Z,9.82
2023-04-16T17:29:07.960Z,9.77
2023-04-16T17:31:34.954Z,11.48
2023-04-16T17:34:04.885Z,11.88
2023-04-16T17:36:32.254Z,13.10
2023-04-16T17:38:59.387Z,12.70
2023-04-16T17:41:26.272Z,11.70
2023-04-16T17:43:56.177Z,13.60
2023-04-16T17:46:23.257Z,13.23
2023-04-16T17:48:50.276Z,13.27
2023-04-16T17:51:17.246Z,14.02
2023-04-16T17:53:44.796Z,15.98
2023-04-16T17:56:12.585Z,15.98
2023-04-16T17:58:39.550Z,14.70
2023-04-16T18:01:07.508Z,14.52
2023-04-16T18:03:34.947Z,11.70
2023-04-16T18:06:02.087Z,12.50
2023-04-16T18:08:29.461Z,12.35
2023-04-16T18:10:56.965Z,14.88
2023-04-16T18:13:24.758Z,14.82
2023-04-16T18:15:53.030Z,13.43
2023-04-16T18:18:21.352Z,13.73
2023-04-16T18:20:48.427Z,16.00
2023-04-16T18:23:15.367Z,14.80
2023-04-16T18:25:42.404Z,12.75
2023-04-16T18:28:09.634Z,13.35
2023-04-16T18:30:39.912Z,14.75
2023-04-16T18:33:37.309Z,13.25
2023-04-16T18:35:54.471Z,15.15
2023-04-16T18:38:21.552Z,16.65
2023-04-16T18:40:51.067Z,13.68
2023-04-16T18:43:18.197Z,17.00
2023-04-16T18:45:45.394Z,18.95
2023-04-16T18:48:12.747Z,17.23
2023-04-16T18:50:39.848Z,18.38
2023-04-16T18:53:07.509Z,18.50
2023-04-16T18:55:34.718Z,17.63
2023-04-16T18:58:02.018Z,19.17
2023-04-16T19:00:31.177Z,19.70
2023-04-16T19:02:58.639Z,18.55
2023-04-16T19:05:27.042Z,20.83
2023-04-16T19:07:55.790Z,20.23
2023-04-16T19:10:23.056Z,21.45
2023-04-16T19:12:50.123Z,19.35
2023-04-16T19:15:20.300Z,21.73
2023-04-16T19:17:47.979Z,20.83
2023-04-16T19:20:15.481Z,20.13
2023-04-16T19:22:47.653Z,20.20
2023-04-16T19:25:14.828Z,18.83
2023-04-16T19:27:41.998Z,18.58
2023-04-16T19:30:10.038Z,19.80
2023-04-16T19:32:37.114Z,21.15
2023-04-16T19:35:09.314Z,21.55
2023-04-16T19:37:37.417Z,22.30
2023-04-16T19:40:06.271Z,19.77
2023-04-16T19:42:34.878Z,18.67
2023-04-16T19:45:03.660Z,23.77
2023-04-16T19:47:31.974Z,19.30
2023-04-16T19:49:59.208Z,19.83
2023-04-16T19:52:26.452Z,21.25
2023-04-16T19:54:53.427Z,21.00
2023-04-16T19:57:20.886Z,21.30
2023-04-16T19:59:47.911Z,20.15
2023-04-16T20:02:15.236Z,22.90
2023-04-16T20:04:42.534Z,21.95
2023-04-16T20:07:09.701Z,22.08
2023-04-16T20:09:36.869Z,21.60
2023-04-16T20:12:04.243Z,19.75
2023-04-16T20:14:31.237Z,20.05
2023-04-16T20:16:58.280Z,24.08
2023-04-16T20:19:30.080Z,20.98
2023-04-16T20:21:57.057Z,22.17
2023-04-16T20:24:24.263Z,21.25
2023-04-16T20:26:51.227Z,21.85
2023-04-16T20:29:18.204Z,21.85
2023-04-16T20:31:46.233Z,22.25
2023-04-16T20:34:13.278Z,22.88
2023-04-16T20:36:40.635Z,22.02
2023-04-16T20:39:08.210Z,20.95
2023-04-16T20:41:35.328Z,24.40
2023-04-16T20:44:05.397Z,21.23
2023-04-16T20:46:34.349Z,23.55
2023-04-16T20:49:01.342Z,20.58
2023-04-16T20:51:28.845Z,22.00
2023-04-16T20:53:55.896Z,25.90
2023-04-16T20:56:22.855Z,24.90
2023-04-16T20:58:49.901Z,23.23
2023-04-16T21:01:47.759Z,23.63
2023-04-16T21:04:14.965Z,22.35
2023-04-16T21:06:43.108Z,19.60
2023-04-16T21:09:10.950Z,20.92
2023-04-16T21:11:38.460Z,23.02
2023-04-16T21:14:06.116Z,22.42
2023-04-16T21:16:33.167Z,23.45
2023-04-16T21:19:00.237Z,20.90
2023-04-16T21:21:27.608Z,20.75
2023-04-16T21:23:54.595Z,21.83
2023-04-16T21:26:21.954Z,25.25
2023-04-16T21:28:49.248Z,24.75
2023-04-16T21:31:16.511Z,24.73
2023-04-16T21:33:44.170Z,24.40
2023-04-16T21:36:11.943Z,23.05
2023-04-16T21:38:38.929Z,24.10
2023-04-16T21:41:05.996Z,21.85
2023-04-16T21:43:33.082Z,23.15
2023-04-16T21:46:00.316Z,23.50
2023-04-16T21:48:28.583Z,22.50
2023-04-16T21:50:59.939Z,24.83
2023-04-16T21:53:28.215Z,23.85
2023-04-16T21:55:55.168Z,22.75
2023-04-16T21:58:22.174Z,21.75
2023-04-16T22:00:49.166Z,25.17
2023-04-16T22:03:17.455Z,24.83
2023-04-16T22:05:45.969Z,22.98
2023-04-16T22:08:24.047Z,22.05
2023-04-16T22:10:51.758Z,26.77
2023-04-16T22:13:18.755Z,21.77
2023-04-16T22:15:46.164Z,21.40
2023-04-16T22:18:13.105Z,20.40
2023-04-16T22:20:40.015Z,21.65
2023-04-16T22:23:07.278Z,22.00
2023-04-16T22:25:34.257Z,22.25
2023-04-16T22:28:01.821Z,21.55
2023-04-16T22:30:28.847Z,23.25
2023-04-16T22:32:56.048Z,22.27
2023-04-16T22:35:23.117Z,21.17
2023-04-16T22:37:50.170Z,21.58
2023-04-16T22:40:17.225Z,20.63
2023-04-16T22:42:44.301Z,25.50
2023-04-16T22:45:11.700Z,22.15
2023-04-16T22:47:39.751Z,20.02
2023-04-16T22:50:07.508Z,24.75
2023-04-16T22:52:34.480Z,22.90
2023-04-16T22:55:01.416Z,24.17
2023-04-16T22:57:28.366Z,21.77
2023-04-16T22:59:56.388Z,21.27
2023-04-16T23:02:23.472Z,25.05
2023-04-16T23:04:50.497Z,21.70
2023-04-16T23:07:17.494Z,25.88
2023-04-16T23:09:44.497Z,23.40
2023-04-16T23:12:17.564Z,23.45
2023-04-16T23:14:46.143Z,26.45
2023-04-16T23:17:13.918Z,24.67
2023-04-16T23:19:41.069Z,28.20
2023-04-16T23:22:08.047Z,26.27
2023-04-16T23:24:34.990Z,27.10
2023-04-16T23:27:02.824Z,23.75
2023-04-16T23:29:29.889Z,23.38
2023-04-16T23:31:58.466Z,24.85
2023-04-16T23:34:25.872Z,23.73
2023-04-16T23:36:52.789Z,24.48
2023-04-16T23:39:19.849Z,26.50
2023-04-16T23:41:46.884Z,23.17
2023-04-16T23:44:13.822Z,22.80
2023-04-16T23:46:41.044Z,26.48
2023-04-16T23:49:08.242Z,26.63
2023-04-16T23:51:35.461Z,26.20
2023-04-16T23:54:02.574Z,21.17
2023-04-16T23:56:30.156Z,24.63
2023-04-16T23:58:57.185Z,24.50
